Time;durP1;ratioP1;P1;durP2;ratioP2;P2;SDS_P1;SDS_P2;PMS_P1;PMS_P2;Temp;Humidity;BMP_temperature;BMP_pressure;BME280_temperature;BME280_humidity;BME280_pressure;Samples;Min_cycle;Max_cycle;Signal;HPM_P1;HPM_P2
2023/08/13 00:00:18;;;;;;;18.02;3.47;;;;;;;17.54;100.00;101433.75;5095760;28;20114;-49
2023/08/13 00:02:43;;;;;;;10.48;2.63;;;;;;;17.86;100.00;101477.38;5077116;28;20074;-47
2023/08/13 00:05:09;;;;;;;10.65;3.08;;;;;;;17.69;100.00;101464.91;5095738;28;20032;-51
2023/08/13 00:07:35;;;;;;;16.85;3.25;;;;;;;16.95;100.00;101348.13;5094709;28;20127;-52
2023/08/13 00:10:01;;;;;;;15.10;3.50;;;;;;;17.70;100.00;101492.41;5094032;28;20062;-50
2023/08/13 00:12:26;;;;;;;15.43;3.35;;;;;;;17.15;100.00;101406.50;5094379;28;20043;-51
2023/08/13 00:14:51;;;;;;;16.02;3.63;;;;;;;17.56;100.00;101489.59;5077326;28;20430;-49
2023/08/13 00:17:17;;;;;;;11.55;3.50;;;;;;;17.50;100.00;101481.88;5095196;28;20048;-51
2023/08/13 00:19:42;;;;;;;13.25;3.53;;;;;;;16.88;100.00;101384.81;5115943;28;20462;-48
2023/08/13 00:22:07;;;;;;;10.77;3.55;;;;;;;17.50;100.00;101482.75;5114530;28;20119;-48
2023/08/13 00:24:33;;;;;;;11.07;3.20;;;;;;;17.48;100.00;101484.63;5095413;28;20105;-49
2023/08/13 00:26:58;;;;;;;11.00;3.70;;;;;;;17.47;100.00;101480.25;5095049;28;20036;-47
2023/08/13 00:29:23;;;;;;;9.90;2.88;;;;;;;17.45;100.00;101487.44;5109956;28;20036;-49
2023/08/13 00:31:49;;;;;;;11.65;3.05;;;;;;;17.43;100.00;101484.84;5096605;28;20047;-53
2023/08/13 00:34:15;;;;;;;13.70;3.42;;;;;;;17.44;100.00;101481.25;5113806;28;20086;-47
2023/08/13 00:36:40;;;;;;;12.18;3.03;;;;;;;16.96;100.00;101401.22;5113253;28;20043;-51
2023/08/13 00:39:05;;;;;;;14.15;3.40;;;;;;;17.47;100.00;101474.03;5102587;28;20056;-49
2023/08/13 00:41:31;;;;;;;12.00;3.03;;;;;;;17.07;100.00;101420.19;5103323;28;20501;-50
2023/08/13 00:43:56;;;;;;;11.27;3.42;;;;;;;17.13;100.00;101437.66;5112993;28;20088;-49
2023/08/13 00:46:21;;;;;;;12.48;3.88;;;;;;;17.18;100.00;101452.44;5099813;28;20403;-46
2023/08/13 00:48:47;;;;;;;13.68;3.22;;;;;;;17.00;100.00;101424.09;5076848;28;20402;-51
2023/08/13 00:51:14;;;;;;;15.02;3.65;;;;;;;16.72;100.00;101382.03;5094725;28;20043;-52
2023/08/13 00:53:48;;;;;;;8.60;3.03;;;;;;;17.23;100.00;101479.66;5076944;28;20040;-51
2023/08/13 00:56:14;;;;;;;12.20;3.38;;;;;;;17.13;100.00;101461.59;5076339;28;20035;-52
2023/08/13 00:58:41;;;;;;;16.23;3.58;;;;;;;16.94;100.00;101429.72;5111017;28;20031;-54
2023/08/13 01:01:07;;;;;;;11.30;3.58;;;;;;;17.02;100.00;101440.81;5112945;28;20455;-52
2023/08/13 01:03:33;;;;;;;8.93;2.67;;;;;;;17.06;100.00;101450.38;5093251;28;20178;-49
2023/08/13 01:06:08;;;;;;;11.95;3.88;;;;;;;17.01;100.00;101449.75;5060036;28;20423;-48
2023/08/13 01:08:59;;;;;;;16.70;3.95;;;;;;;17.07;100.00;101470.72;5094355;28;20154;-50
2023/08/13 01:11:40;;;;;;;11.18;3.85;;;;;;;17.06;100.00;101471.66;5076313;28;20702;-52
2023/08/13 01:14:18;;;;;;;16.95;3.63;;;;;;;17.10;100.00;101485.69;5097063;28;20614;-49
2023/08/13 01:16:43;;;;;;;13.52;3.67;;;;;;;17.02;100.00;101455.91;5059433;28;20032;-50
2023/08/13 01:19:15;;;;;;;12.60;3.10;;;;;;;17.02;100.00;101458.56;5104043;28;20042;-51
2023/08/13 01:21:40;;;;;;;10.90;3.00;;;;;;;17.10;100.00;101473.25;5076468;28;20024;-48
2023/08/13 01:24:06;;;;;;;9.95;3.28;;;;;;;16.66;100.00;101397.44;5104996;27;20385;-51
2023/08/13 01:26:45;;;;;;;9.30;2.80;;;;;;;16.68;100.00;101403.53;5114242;28;20043;-48
2023/08/13 01:29:22;;;;;;;11.68;4.50;;;;;;;17.01;100.00;101454.22;5100365;27;20036;-49
2023/08/13 01:31:51;;;;;;;12.13;3.00;;;;;;;17.06;100.00;101474.31;5076253;28;20040;-51
2023/08/13 01:34:17;;;;;;;13.57;3.72;;;;;;;16.58;100.00;101400.44;5086936;28;20031;-51
2023/08/13 01:36:43;;;;;;;17.83;4.38;;;;;;;16.42;100.00;101369.34;5086667;28;20522;-49
2023/08/13 01:39:08;;;;;;;13.07;4.00;;;;;;;16.85;100.00;101459.41;5084597;28;20143;-49
2023/08/13 01:41:42;;;;;;;11.30;3.95;;;;;;;16.97;100.00;101468.59;5114130;28;20111;-49
2023/08/13 01:44:07;;;;;;;9.90;3.72;;;;;;;16.51;100.00;101388.38;5112451;28;20354;-48
2023/08/13 01:46:33;;;;;;;9.98;4.00;;;;;;;16.51;100.00;101391.03;5114143;28;20046;-50
2023/08/13 01:48:58;;;;;;;12.63;4.35;;;;;;;16.97;100.00;101461.47;5106815;28;20063;-47
2023/08/13 01:51:23;;;;;;;19.40;4.07;;;;;;;17.02;100.00;101469.22;5093918;28;20113;-47
2023/08/13 01:53:48;;;;;;;12.15;4.00;;;;;;;16.99;100.00;101466.72;5092574;28;20032;-50
2023/08/13 01:56:14;;;;;;;10.02;4.25;;;;;;;16.98;100.00;101463.19;5093367;28;20214;-47
2023/08/13 01:58:39;;;;;;;11.80;3.90;;;;;;;16.95;100.00;101473.13;5092028;28;20043;-48
2023/08/13 02:01:05;;;;;;;9.52;3.85;;;;;;;16.93;100.00;101461.72;5075494;28;20039;-53
2023/08/13 02:03:30;;;;;;;12.23;4.15;;;;;;;17.01;100.00;101472.81;5092584;28;20044;-49
2023/08/13 02:05:55;;;;;;;12.10;3.75;;;;;;;17.02;100.00;101466.56;5092779;28;20115;-48
2023/08/13 02:08:21;;;;;;;10.65;3.78;;;;;;;16.97;100.00;101449.97;5092950;28;20033;-49
2023/08/13 02:10:46;;;;;;;13.60;4.47;;;;;;;16.92;100.00;101455.53;5094253;28;20114;-49
2023/08/13 02:13:12;;;;;;;12.52;3.95;;;;;;;16.95;100.00;101451.84;5093249;28;20069;-49
2023/08/13 02:15:37;;;;;;;10.05;3.78;;;;;;;17.00;100.00;101453.34;5091610;28;20044;-51
2023/08/13 02:18:03;;;;;;;12.20;3.65;;;;;;;17.10;100.00;101456.41;5091798;28;20089;-49
2023/08/13 02:20:28;;;;;;;9.95;3.53;;;;;;;16.65;100.00;101369.13;5091791;28;20077;-54
2023/08/13 02:22:53;;;;;;;11.45;3.75;;;;;;;16.85;100.00;101392.94;5092624;28;20040;-47
2023/08/13 02:25:19;;;;;;;16.33;4.43;;;;;;;17.20;100.00;101434.59;5080339;28;20093;-49
2023/08/13 02:27:44;;;;;;;10.38;3.25;;;;;;;17.36;100.00;101453.31;5097173;28;20047;-49
2023/08/13 02:30:10;;;;;;;11.18;3.03;;;;;;;17.40;100.00;101458.38;5096556;28;20032;-50
2023/08/13 02:32:35;;;;;;;10.85;3.35;;;;;;;17.29;100.00;101436.78;5094877;28;20456;-49
2023/08/13 02:35:00;;;;;;;14.40;3.10;;;;;;;17.44;100.00;101462.63;5092603;28;20036;-50
2023/08/13 02:37:26;;;;;;;14.65;3.42;;;;;;;17.49;100.00;101450.88;5113070;28;20040;-51
2023/08/13 02:39:51;;;;;;;14.15;3.40;;;;;;;17.26;100.00;101409.47;5111947;28;20093;-51
2023/08/13 02:42:16;;;;;;;10.75;3.30;;;;;;;17.55;100.00;101453.25;5092981;28;20475;-53
2023/08/13 02:44:42;;;;;;;17.10;3.55;;;;;;;17.59;100.00;101452.16;5091607;28;20494;-53
2023/08/13 02:47:07;;;;;;;9.52;3.58;;;;;;;17.62;100.00;101452.00;5107765;28;20047;-53
2023/08/13 02:49:32;;;;;;;15.50;3.25;;;;;;;17.62;100.00;101450.22;5112771;28;20031;-49
2023/08/13 02:51:58;;;;;;;10.50;3.28;;;;;;;17.32;100.00;101406.50;5110639;28;20035;-49
2023/08/13 02:54:23;;;;;;;10.88;3.33;;;;;;;17.62;100.00;101450.22;5112683;28;20443;-48
2023/08/13 02:56:48;;;;;;;11.85;3.17;;;;;;;17.21;100.00;101388.44;5099618;28;20066;-48
2023/08/13 02:59:14;;;;;;;12.30;3.38;;;;;;;17.55;100.00;101454.13;5092272;28;20036;-49
2023/08/13 03:01:39;;;;;;;10.32;3.22;;;;;;;17.10;100.00;101384.59;5091093;28;20047;-53
2023/08/13 03:04:05;;;;;;;12.75;3.90;;;;;;;17.49;100.00;101450.88;5091910;28;20042;-47
2023/08/13 03:06:31;;;;;;;12.02;3.85;;;;;;;17.44;100.00;101451.97;5091902;28;20028;-50
2023/08/13 03:08:56;;;;;;;10.30;3.47;;;;;;;16.85;100.00;101363.69;5092303;28;20044;-50
2023/08/13 03:11:21;;;;;;;9.25;3.88;;;;;;;17.28;100.00;101445.69;5091826;28;20097;-50
2023/08/13 03:13:47;;;;;;;11.43;2.88;;;;;;;17.29;100.00;101452.75;5112730;28;20039;-51
2023/08/13 03:16:13;;;;;;;14.88;3.58;;;;;;;17.15;100.00;101431.31;5110383;28;20505;-51
2023/08/13 03:18:38;;;;;;;12.57;3.40;;;;;;;16.75;100.00;101368.59;5089938;28;20040;-50
2023/08/13 03:21:03;;;;;;;11.88;3.05;;;;;;;16.74;100.00;101377.50;5091447;28;20490;-49
2023/08/13 03:23:29;;;;;;;11.45;3.05;;;;;;;16.77;100.00;101380.03;5108373;28;20085;-52
2023/08/13 03:25:54;;;;;;;9.60;2.83;;;;;;;16.77;100.00;101382.69;5112429;28;20081;-50
2023/08/13 03:28:20;;;;;;;10.18;3.30;;;;;;;17.19;100.00;101453.31;5109502;28;20043;-48
2023/08/13 03:30:45;;;;;;;10.60;3.33;;;;;;;17.21;100.00;101452.28;5111803;28;20032;-52
2023/08/13 03:33:10;;;;;;;11.00;3.28;;;;;;;17.14;100.00;101440.22;5102887;28;20119;-52
2023/08/13 03:35:37;;;;;;;10.55;3.05;;;;;;;17.14;100.00;101431.38;5097162;28;20042;-49
2023/08/13 03:38:03;;;;;;;16.42;4.05;;;;;;;17.12;100.00;101436.78;5083101;28;20115;-50
2023/08/13 03:40:28;;;;;;;12.85;3.83;;;;;;;16.58;100.00;101355.25;5091798;28;20098;-50
2023/08/13 03:42:53;;;;;;;11.35;3.90;;;;;;;16.55;100.00;101367.88;5090720;28;20044;-50
2023/08/13 03:45:19;;;;;;;13.48;3.97;;;;;;;16.39;100.00;101348.25;5091633;28;20056;-47
2023/08/13 03:47:44;;;;;;;12.35;4.00;;;;;;;16.82;100.00;101431.16;5076834;28;20082;-46
2023/08/13 03:50:09;;;;;;;10.43;3.35;;;;;;;16.82;100.00;101440.94;5112143;28;20043;-53
2023/08/13 03:52:35;;;;;;;12.52;3.25;;;;;;;16.78;100.00;101442.03;5092289;28;20104;-52
2023/08/13 03:55:00;;;;;;;11.10;3.15;;;;;;;16.71;100.00;101429.97;5112216;28;20122;-50
2023/08/13 03:57:25;;;;;;;9.38;3.03;;;;;;;16.68;100.00;101443.41;5110837;28;20457;-49
2023/08/13 03:59:51;;;;;;;10.82;3.67;;;;;;;16.62;100.00;101447.22;5091057;28;20051;-52
2023/08/13 04:02:16;;;;;;;10.60;3.40;;;;;;;15.72;100.00;101306.28;5091579;28;20769;-49
2023/08/13 04:04:41;;;;;;;10.07;2.78;;;;;;;16.47;100.00;101444.38;5090330;28;20044;-52
2023/08/13 04:07:07;;;;;;;12.55;3.10;;;;;;;16.50;100.00;101442.44;5090933;28;20040;-51
2023/08/13 04:09:32;;;;;;;10.80;3.45;;;;;;;16.17;100.00;101382.94;5104613;28;20032;-51
2023/08/13 04:11:57;;;;;;;9.65;3.30;;;;;;;16.12;100.00;101387.59;5112023;28;20088;-49
2023/08/13 04:14:23;;;;;;;12.45;3.45;;;;;;;16.52;100.00;101456.50;5109922;28;20520;-52
2023/08/13 04:16:48;;;;;;;7.95;3.22;;;;;;;16.43;100.00;101442.81;5111287;28;20093;-48
2023/08/13 04:19:13;;;;;;;19.08;4.03;;;;;;;16.05;100.00;101384.34;5082565;28;20483;-50
2023/08/13 04:21:39;;;;;;;9.70;3.88;;;;;;;16.36;100.00;101439.59;5091378;28;20047;-49
2023/08/13 04:24:04;;;;;;;9.52;3.80;;;;;;;16.45;100.00;101447.13;5096623;28;20036;-48
2023/08/13 04:26:30;;;;;;;10.50;3.63;;;;;;;16.50;100.00;101460.19;5096758;28;20036;-50
2023/08/13 04:28:55;;;;;;;12.18;3.58;;;;;;;16.50;100.00;101463.72;5090299;28;20032;-53
2023/08/13 04:31:20;;;;;;;12.48;4.00;;;;;;;16.51;100.00;101454.81;5091362;28;20039;-46
2023/08/13 04:33:47;;;;;;;10.68;3.70;;;;;;;16.10;100.00;101386.81;5090244;28;20024;-49
2023/08/13 04:36:13;;;;;;;15.88;3.90;;;;;;;16.23;100.00;101403.88;5073305;28;20376;-49
2023/08/13 04:38:38;;;;;;;12.55;4.00;;;;;;;16.39;100.00;101433.25;5091031;28;20039;-49
2023/08/13 04:41:03;;;;;;;12.48;3.28;;;;;;;16.67;100.00;101460.28;5089022;28;20050;-51
2023/08/13 04:43:29;;;;;;;13.25;4.00;;;;;;;16.25;100.00;101391.41;5090549;28;20036;-51
2023/08/13 04:45:54;;;;;;;14.13;4.13;;;;;;;16.61;100.00;101444.63;5094676;28;20040;-52
2023/08/13 04:48:48;;;;;;;12.88;4.32;;;;;;;16.29;100.00;101392.97;5071992;28;20047;-50
2023/08/13 04:51:17;;;;;;;13.40;3.85;;;;;;;16.24;100.00;101387.88;5073386;28;20074;-49
2023/08/13 04:53:42;;;;;;;9.40;3.35;;;;;;;16.73;100.00;101476.81;5072271;28;20043;-52
2023/08/13 04:56:08;;;;;;;13.32;3.65;;;;;;;16.63;100.00;101456.06;5074423;28;20590;-49
2023/08/13 04:58:34;;;;;;;10.55;3.00;;;;;;;16.79;100.00;101484.50;5071287;28;20036;-47
2023/08/13 05:01:00;;;;;;;10.98;3.20;;;;;;;16.76;100.00;101462.50;5074436;28;20454;-46
2023/08/13 05:03:26;;;;;;;9.07;3.38;;;;;;;16.71;100.00;101465.41;5081718;28;20040;-50
2023/08/13 05:05:51;;;;;;;8.30;3.50;;;;;;;16.37;100.00;101392.63;5093352;28;20046;-49
2023/08/13 05:08:17;;;;;;;10.75;3.30;;;;;;;16.48;100.00;101422.19;5091809;28;20387;-48
2023/08/13 05:10:45;;;;;;;15.23;2.90;;;;;;;16.81;100.00;101471.13;5073898;28;20032;-51
2023/08/13 05:13:10;;;;;;;10.75;3.35;;;;;;;16.34;100.00;101397.13;5072816;28;20074;-49
2023/08/13 05:15:36;;;;;;;9.35;2.90;;;;;;;16.70;100.00;101452.16;5074191;28;20050;-50
2023/08/13 05:18:01;;;;;;;13.52;2.80;;;;;;;16.25;100.00;101384.31;5074192;28;20037;-48
2023/08/13 05:20:26;;;;;;;14.45;3.58;;;;;;;16.64;100.00;101444.47;5073388;28;20036;-48
2023/08/13 05:22:51;;;;;;;13.80;3.25;;;;;;;16.27;100.00;101385.09;5073649;28;20123;-46
2023/08/13 05:25:17;;;;;;;11.68;3.72;;;;;;;16.74;100.00;101465.25;5085586;28;20032;-51
2023/08/13 05:27:42;;;;;;;13.25;3.65;;;;;;;16.37;100.00;101390.84;5094137;28;20042;-50
2023/08/13 05:30:08;;;;;;;7.75;3.00;;;;;;;16.83;100.00;101467.47;5087657;28;20070;-51
2023/08/13 05:32:33;;;;;;;9.68;2.53;;;;;;;16.74;100.00;101445.78;5073659;28;20058;-54
2023/08/13 05:34:59;;;;;;;8.70;3.00;;;;;;;16.49;100.00;101397.38;5073765;28;20567;-50
2023/08/13 05:37:24;;;;;;;13.38;3.47;;;;;;;16.95;100.00;101463.34;5086739;28;20046;-52
2023/08/13 05:39:50;;;;;;;13.90;4.10;;;;;;;17.01;100.00;101457.72;5099333;28;20172;-48
2023/08/13 05:42:16;;;;;;;9.23;3.17;;;;;;;16.60;100.00;101374.69;5112193;28;20042;-51
2023/08/13 05:44:41;;;;;;;13.88;3.28;;;;;;;17.26;100.00;101458.22;5095310;28;20107;-49
2023/08/13 05:47:07;;;;;;;14.63;3.72;;;;;;;17.43;100.00;101460.91;5103682;28;20036;-51
2023/08/13 05:49:32;;;;;;;8.23;3.38;;;;;;;17.24;100.00;101398.06;5093355;28;20035;-51
2023/08/13 05:51:58;;;;;;;9.93;3.05;;;;;;;17.75;100.00;101475.25;5098128;28;20478;-50
2023/08/13 05:54:23;;;;;;;13.75;4.10;;;;;;;17.39;100.00;101405.25;5095601;28;20119;-49
2023/08/13 05:56:49;;;;;;;14.48;3.83;;;;;;;17.85;100.00;101480.97;5093359;28;20043;-48
2023/08/13 05:59:14;;;;;;;9.57;2.47;;;;;;;17.89;100.00;101485.19;5095709;28;20036;-51
2023/08/13 06:01:40;;;;;;;12.68;3.20;;;;;;;17.83;100.00;101465.03;5093733;28;20047;-52
2023/08/13 06:04:05;;;;;;;8.65;2.70;;;;;;;18.00;100.00;101477.50;5112205;28;20028;-49
2023/08/13 06:06:31;;;;;;;10.88;3.22;;;;;;;18.32;100.00;101473.97;5092566;28;20552;-51
2023/08/13 06:08:56;;;;;;;9.85;3.47;;;;;;;18.39;100.00;101466.47;5094449;28;20035;-50
2023/08/13 06:11:22;;;;;;;11.02;3.25;;;;;;;18.63;100.00;101478.50;5113385;28;20043;-50
2023/08/13 06:13:47;;;;;;;8.80;2.35;;;;;;;18.54;100.00;101457.66;5094954;28;20055;-50
2023/08/13 06:16:12;;;;;;;12.57;3.15;;;;;;;18.72;100.00;101480.66;5093104;28;20046;-52
2023/08/13 06:18:38;;;;;;;8.63;3.38;;;;;;;18.45;100.00;101432.34;5088552;28;20242;-47
2023/08/13 06:21:03;;;;;;;8.93;3.03;;;;;;;18.75;100.00;101490.28;5108138;28;20029;-49
2023/08/13 06:23:29;;;;;;;12.43;4.55;;;;;;;18.58;100.00;101475.22;5092286;28;20081;-48
2023/08/13 06:25:55;;;;;;;9.93;2.67;;;;;;;18.61;100.00;101480.41;5057805;28;20032;-50
2023/08/13 06:28:20;;;;;;;7.78;2.53;;;;;;;18.52;100.00;101465.75;5073692;28;20047;-53
2023/08/13 06:30:45;;;;;;;13.32;3.10;;;;;;;18.74;100.00;101467.25;5074559;28;20036;-50
2023/08/13 06:33:12;;;;;;;8.43;2.72;;;;;;;18.96;100.00;101479.28;5099830;28;20132;-50
2023/08/13 06:35:37;;;;;;;8.63;2.72;;;;;;;19.24;100.00;101491.00;5113270;28;20027;-48
2023/08/13 06:38:03;;;;;;;10.55;3.38;;;;;;;19.50;100.00;101474.34;5072685;28;20476;-48
2023/08/13 06:40:28;;;;;;;9.50;2.50;;;;;;;19.77;100.00;101467.38;5092516;28;20093;-48
2023/08/13 06:42:54;;;;;;;7.50;2.40;;;;;;;19.49;100.00;101443.28;5076282;28;20035;-52
2023/08/13 06:45:23;;;;;;;11.48;2.95;;;;;;;19.92;100.00;101493.16;5099002;28;20093;-49
2023/08/13 06:47:48;;;;;;;5.95;2.75;;;;;;;20.02;100.00;101502.31;5092244;28;20035;-52
2023/08/13 06:50:14;;;;;;;6.85;2.38;;;;;;;19.64;100.00;101421.00;5094694;28;20723;-53
2023/08/13 06:52:39;;;;;;;8.20;2.75;;;;;;;20.20;100.00;101505.69;5113011;28;20089;-52
2023/08/13 06:55:05;;;;;;;8.20;2.70;;;;;;;20.26;100.00;101491.13;5092736;27;20495;-48
2023/08/13 06:57:30;;;;;;;8.00;3.42;;;;;;;20.50;100.00;101511.84;5092157;28;20047;-48
2023/08/13 06:59:55;;;;;;;10.90;2.70;;;;;;;20.46;100.00;101512.13;5099540;28;20317;-50
2023/08/13 07:02:21;;;;;;;10.63;2.38;;;;;;;19.84;100.00;101431.31;5092089;28;20115;-52
2023/08/13 07:04:46;;;;;;;9.23;2.60;;;;;;;20.31;100.00;101513.09;5104626;28;20039;-46
2023/08/13 07:07:11;;;;;;;8.07;2.75;;;;;;;20.27;100.00;101520.44;5112829;28;20042;-54
2023/08/13 07:09:37;;;;;;;10.73;2.60;;;;;;;20.28;100.00;101487.41;5110584;28;20046;-49
2023/08/13 07:12:03;;;;;;;10.05;2.60;;;;;;;20.50;100.00;101487.75;5112864;28;20032;-48
2023/08/13 07:14:29;;;;;;;6.95;2.35;;;;;;;20.53;100.00;101492.06;5084577;28;20110;-51
2023/08/13 07:16:54;;;;;;;5.88;2.53;;;;;;;20.77;100.00;101510.09;5092292;28;20036;-49
2023/08/13 07:19:19;;;;;;;7.28;2.47;;;;;;;20.94;100.00;101524.19;5095766;28;20036;-51
2023/08/13 07:21:46;;;;;;;7.25;2.33;;;;;;;20.74;100.00;101471.97;5112728;28;20031;-47
2023/08/13 07:24:11;;;;;;;7.85;2.40;;;;;;;21.20;100.00;101528.72;5089692;28;20040;-49
2023/08/13 07:26:36;;;;;;;8.65;2.63;;;;;;;21.23;100.00;101518.69;5091238;28;20101;-49
2023/08/13 07:29:06;;;;;;;10.00;2.63;;;;;;;21.23;100.00;101518.69;5091516;28;20039;-53
2023/08/13 07:31:32;;;;;;;10.00;2.92;;;;;;;20.83;100.00;101471.38;5111972;28;20110;-53
2023/08/13 07:33:57;;;;;;;8.88;2.53;;;;;;;21.23;100.00;101529.41;5112255;28;20505;-52
2023/08/13 07:36:22;;;;;;;5.93;2.33;;;;;;;21.16;100.00;101516.53;5090386;28;20072;-51
2023/08/13 07:38:48;;;;;;;6.25;2.38;;;;;;;21.25;100.00;101530.16;5091510;28;20068;-50
2023/08/13 07:41:13;;;;;;;6.55;2.00;;;;;;;20.37;100.00;101374.53;5107313;28;20487;-51
2023/08/13 07:43:39;;;;;;;10.45;3.40;;;;;;;21.41;100.00;101539.84;5094064;28;20061;-50
2023/08/13 07:46:04;;;;;;;7.15;2.33;;;;;;;21.10;100.00;101461.53;5095995;28;20472;-50
2023/08/13 07:48:29;;;;;;;7.65;2.10;;;;;;;21.03;100.00;101457.53;5073147;28;20028;-49
2023/08/13 07:50:55;;;;;;;4.90;2.10;;;;;;;21.34;100.00;101527.84;5091409;28;20092;-49
2023/08/13 07:53:20;;;;;;;6.22;1.80;;;;;;;21.36;100.00;101525.91;5090068;28;20055;-54
2023/08/13 07:55:53;;;;;;;5.60;1.50;;;;;;;21.26;100.00;101533.69;5089824;28;20077;-53
2023/08/13 07:58:18;;;;;;;5.65;1.80;;;;;;;21.16;100.00;101505.81;5072677;28;20086;-50
2023/08/13 08:00:43;;;;;;;10.10;2.35;;;;;;;20.98;100.00;101465.03;5097978;28;20028;-47
2023/08/13 08:03:09;;;;;;;7.35;2.70;;;;;;;21.57;100.00;101522.66;5111485;28;20048;-50
2023/08/13 08:05:35;;;;;;;4.40;1.55;;;;;;;21.45;100.00;101461.03;5108649;28;20071;-52
2023/08/13 08:08:01;;;;;;;7.65;2.00;;;;;;;22.09;100.00;101532.53;5096962;28;20040;-47
2023/08/13 08:10:27;;;;;;;4.95;1.65;;;;;;;22.19;100.00;101518.38;5093738;28;20357;-49
2023/08/13 08:12:53;;;;;;;4.68;1.83;;;;;;;22.30;100.00;101531.00;5111595;28;20042;-49
2023/08/13 08:15:18;;;;;;;6.90;2.28;;;;;;;22.27;100.00;101542.00;5111093;28;20401;-49
2023/08/13 08:17:43;;;;;;;9.30;2.50;;;;;;;22.05;100.00;101544.44;5095573;28;20556;-53
2023/08/13 08:20:10;;;;;;;7.13;2.13;;;;;;;22.10;100.00;101544.97;5094778;28;20040;-48
2023/08/13 08:22:35;;;;;;;4.97;1.65;;;;;;;21.79;100.00;101492.59;5101155;28;20075;-51
2023/08/13 08:25:06;;;;;;;4.15;1.67;;;;;;;22.12;100.00;101560.00;5098336;28;20063;-51
2023/08/13 08:27:31;;;;;;;4.70;1.65;;;;;;;21.96;100.00;101528.97;5095007;28;20032;-52
2023/08/13 08:29:56;;;;;;;2.63;1.40;;;;;;;21.90;100.00;101535.63;5094809;28;20040;-50
2023/08/13 08:32:22;;;;;;;6.68;1.52;;;;;;;21.79;100.00;101533.66;5095430;28;20035;-50
2023/08/13 08:34:47;;;;;;;3.28;1.50;;;;;;;21.84;100.00;101522.59;5095181;28;20028;-50
2023/08/13 08:37:14;;;;;;;3.83;1.23;;;;;;;21.78;100.00;101529.25;5093943;28;20173;-52
2023/08/13 08:39:39;;;;;;;9.00;1.58;;;;;;;21.53;100.00;101472.94;5093472;28;20044;-53
2023/08/13 08:42:06;;;;;;;5.68;1.35;;;;;;;21.31;100.00;101461.94;5094867;28;20040;-53
2023/08/13 08:44:32;;;;;;;3.65;1.38;;;;;;;21.42;100.00;101488.00;5094254;28;20486;-48
2023/08/13 08:46:58;;;;;;;3.50;1.45;;;;;;;21.21;100.00;101467.06;5094533;28;20028;-53
2023/08/13 08:49:24;;;;;;;5.95;1.55;;;;;;;21.25;100.00;101476.59;5079892;28;20035;-50
2023/08/13 08:51:50;;;;;;;3.58;1.58;;;;;;;21.53;100.00;101539.03;5093812;28;20043;-49
2023/08/13 08:54:17;;;;;;;5.70;1.80;;;;;;;21.34;100.00;101523.31;5115009;28;20019;-53
2023/08/13 08:56:42;;;;;;;5.18;1.48;;;;;;;21.04;100.00;101478.00;5080698;28;20457;-50
2023/08/13 08:59:08;;;;;;;6.35;1.60;;;;;;;21.41;100.00;101538.03;5076570;28;20032;-50
2023/08/13 09:01:33;;;;;;;5.55;1.58;;;;;;;20.96;100.00;101466.91;5094019;28;20039;-49
2023/08/13 09:03:59;;;;;;;5.32;1.33;;;;;;;20.90;100.00;101461.97;5094705;28;20036;-49
2023/08/13 09:07:01;;;;;;;3.30;1.17;;;;;;;21.33;100.00;101537.69;5076556;28;20511;-51
2023/08/13 09:09:27;;;;;;;4.85;1.52;;;;;;;21.47;100.00;101528.72;5094686;28;20031;-52
2023/08/13 09:11:54;;;;;;;3.92;1.67;;;;;;;21.32;100.00;101469.03;5094787;28;20044;-48
2023/08/13 09:14:20;;;;;;;5.65;1.40;;;;;;;21.71;100.00;101537.81;5094106;28;20419;-50
2023/08/13 09:16:53;;;;;;;3.65;1.45;;;;;;;22.04;100.00;101529.28;5094189;28;20034;-49
2023/08/13 09:19:19;;;;;;;4.47;1.10;;;;;;;22.32;100.00;101523.75;5094779;28;20169;-51
2023/08/13 09:21:56;;;;;;;5.47;1.63;;;;;;;22.46;100.00;101506.66;5076640;28;20028;-52
2023/08/13 09:24:36;;;;;;;4.65;1.60;;;;;;;22.76;100.00;101516.09;5094200;28;20024;-49
2023/08/13 09:27:03;;;;;;;4.20;1.70;;;;;;;22.82;100.00;101529.06;5074441;28;20078;-49
2023/08/13 09:29:32;;;;;;;5.03;1.42;;;;;;;22.98;100.00;101542.22;5075632;28;20040;-50
2023/08/13 09:32:01;;;;;;;2.58;1.30;;;;;;;23.16;100.00;101516.69;5076594;28;20035;-49
2023/08/13 09:34:27;;;;;;;5.07;1.30;;;;;;;23.34;100.00;101472.34;5094188;28;20099;-47
2023/08/13 09:36:53;;;;;;;5.00;1.48;;;;;;;24.20;100.00;101467.47;5075993;28;20035;-49
2023/08/13 09:39:20;;;;;;;5.93;1.60;;;;;;;24.00;100.00;101296.03;5075771;28;20375;-54
2023/08/13 09:41:47;;;;;;;4.05;2.10;;;;;;;25.52;100.00;101483.53;5075555;28;20399;-48
2023/08/13 09:44:14;;;;;;;2.25;1.10;;;;;;;25.50;100.00;101526.78;5076175;28;20439;-50
2023/08/13 09:46:40;;;;;;;2.40;0.85;;;;;;;25.49;100.00;101521.50;5093294;28;20040;-52
2023/08/13 09:49:09;;;;;;;4.95;1.20;;;;;;;26.17;100.00;101515.66;5075964;28;20039;-52
2023/08/13 09:51:37;;;;;;;4.15;1.40;;;;;;;25.85;100.00;101459.06;5093752;28;20028;-47
2023/08/13 09:54:14;;;;;;;5.03;1.42;;;;;;;25.68;100.00;101505.50;5075473;28;20479;-49
2023/08/13 09:56:42;;;;;;;5.47;1.25;;;;;;;24.72;100.00;101455.22;5075710;28;20578;-51
2023/08/13 09:59:08;;;;;;;2.90;0.90;;;;;;;24.87;100.00;101503.28;5093888;28;20085;-54
2023/08/13 10:01:34;;;;;;;2.13;0.98;;;;;;;24.63;100.00;101454.13;5075096;28;20040;-53
2023/08/13 10:04:00;;;;;;;4.35;1.10;;;;;;;24.80;100.00;101512.88;5075589;28;20169;-54
2023/08/13 10:06:26;;;;;;;2.95;1.00;;;;;;;24.22;100.00;101445.84;5075686;28;20036;-48
2023/08/13 10:08:51;;;;;;;5.47;1.30;;;;;;;24.25;100.00;101505.63;5093202;28;20047;-52
2023/08/13 10:11:17;;;;;;;3.92;0.95;;;;;;;23.92;100.00;101465.22;5093610;28;20039;-52
2023/08/13 10:13:42;;;;;;;3.30;1.10;;;;;;;23.64;100.00;101471.88;5093570;28;20115;-51
2023/08/13 10:16:08;;;;;;;3.10;0.98;;;;;;;23.68;100.00;101480.53;5092700;28;20317;-51
2023/08/13 10:18:34;;;;;;;2.40;0.88;;;;;;;23.65;100.00;101503.16;5092759;28;20498;-53
2023/08/13 10:20:59;;;;;;;2.90;1.15;;;;;;;23.26;100.00;101439.81;5093412;28;20447;-47
2023/08/13 10:23:26;;;;;;;3.20;1.10;;;;;;;23.35;100.00;101497.41;5075498;28;20503;-49
2023/08/13 10:25:53;;;;;;;4.32;1.33;;;;;;;23.30;100.00;101502.22;5093239;28;20036;-50
2023/08/13 10:28:33;;;;;;;3.63;1.30;;;;;;;23.19;100.00;101486.94;5075162;28;20265;-52
2023/08/13 10:31:20;;;;;;;2.38;1.25;;;;;;;23.55;100.00;101506.66;5091755;28;20085;-51
2023/08/13 10:33:46;;;;;;;3.33;1.08;;;;;;;23.94;100.00;101512.50;5091505;28;20483;-51
2023/08/13 10:36:11;;;;;;;1.65;0.98;;;;;;;24.00;100.00;101500.41;5092570;28;20076;-47
2023/08/13 10:38:38;;;;;;;3.10;1.13;;;;;;;23.95;100.00;101508.84;5074534;28;20036;-55
2023/08/13 10:41:05;;;;;;;2.65;1.15;;;;;;;23.27;100.00;101389.66;5093025;28;20059;-52
2023/08/13 10:43:30;;;;;;;3.40;0.90;;;;;;;23.59;100.00;101432.88;5074718;28;20057;-49
2023/08/13 10:45:55;;;;;;;3.47;1.17;;;;;;;23.37;100.00;101415.72;5074207;28;20032;-50
2023/08/13 10:48:28;;;;;;;1.92;0.98;;;;;;;23.75;100.00;101489.88;5092661;28;20035;-53
2023/08/13 10:50:57;;;;;;;3.45;1.10;;;;;;;23.93;100.00;101464.25;5092276;28;20089;-50
2023/08/13 10:53:25;;;;;;;2.45;0.93;;;;;;;24.37;100.00;101437.38;5074846;28;20032;-57
2023/08/13 10:55:53;;;;;;;2.80;0.85;;;;;;;24.73;100.00;101441.59;5074865;28;20134;-49
2023/08/13 10:58:23;;;;;;;3.15;0.98;;;;;;;25.29;100.00;101509.69;5092663;28;20392;-53
2023/08/13 11:00:49;;;;;;;2.55;1.02;;;;;;;25.78;100.00;101470.50;5074548;28;20028;-49
2023/08/13 11:03:17;;;;;;;2.83;1.10;;;;;;;26.83;100.00;101489.94;5092650;28;20031;-50
2023/08/13 11:05:46;;;;;;;3.85;1.08;;;;;;;27.77;100.00;101506.41;5075035;28;20039;-48
2023/08/13 11:08:22;;;;;;;3.95;1.38;;;;;;;28.14;100.00;101457.78;5074024;28;20399;-55
2023/08/13 11:10:49;;;;;;;4.57;1.35;;;;;;;28.53;100.00;101466.59;5092248;28;20108;-52